Time;durP1;ratioP1;P1;durP2;ratioP2;P2;SDS_P1;SDS_P2;PMS_P1;PMS_P2;Temp;Humidity;BMP_temperature;BMP_pressure;BME280_temperature;BME280_humidity;BME280_pressure;Samples;Min_cycle;Max_cycle;Signal;HPM_P1;HPM_P2
2022/05/07 00:00:28;;;;;;;13.48;11.18;;;;;;;;;;4801063;29;20100;-82
2022/05/07 00:02:54;;;;;;;14.20;10.63;;;;;;;;;;4817709;29;20026;-83
2022/05/07 00:05:20;;;;;;;13.65;10.25;;;;;;;;;;4817805;29;20053;-83
2022/05/07 00:07:46;;;;;;;14.18;10.70;;;;;;;;;;4801153;29;20146;-80
2022/05/07 00:10:12;;;;;;;13.20;11.07;;;;;;;;;;4815895;29;20041;-84
2022/05/07 00:12:40;;;;;;;13.13;10.32;;;;;;;;;;4814835;29;20466;-79
2022/05/07 00:15:06;;;;;;;14.23;10.57;;;;;;;;;;4803036;29;20121;-83
2022/05/07 00:20:15;;;;;;;13.40;10.38;;;;;;;;;;4817430;29;20056;-79
2022/05/07 00:22:41;;;;;;;12.52;10.82;;;;;;;;;;4812637;29;20038;-80
2022/05/07 00:25:06;;;;;;;12.73;10.13;;;;;;;;;;4802308;29;20142;-79
2022/05/07 00:27:32;;;;;;;13.57;10.93;;;;;;;;;;4817778;29;20073;-83
2022/05/07 00:29:57;;;;;;;13.57;10.65;;;;;;;;;;4814232;29;20107;-80
2022/05/07 00:32:22;;;;;;;13.93;11.32;;;;;;;;;;4815981;29;20079;-78
2022/05/07 00:34:48;;;;;;;15.43;11.38;;;;;;;;;;4800018;29;20042;-79
2022/05/07 00:37:13;;;;;;;13.48;11.25;;;;;;;;;;4801518;29;20114;-84
2022/05/07 00:39:38;;;;;;;14.38;10.40;;;;;;;;;;4815175;29;20058;-81
2022/05/07 00:42:05;;;;;;;14.45;11.38;;;;;;;;;;4802843;29;20038;-83
2022/05/07 00:44:31;;;;;;;14.30;11.15;;;;;;;;;;4799840;29;20087;-79
2022/05/07 00:47:22;;;;;;;13.35;10.45;;;;;;;;;;4797079;29;20041;-79
2022/05/07 00:49:48;;;;;;;13.18;10.48;;;;;;;;;;4797896;29;20034;-83
2022/05/07 00:52:15;;;;;;;15.30;10.93;;;;;;;;;;4818602;29;20083;-79
2022/05/07 00:54:41;;;;;;;14.27;11.38;;;;;;;;;;4816593;29;20030;-83
2022/05/07 00:57:08;;;;;;;12.98;11.10;;;;;;;;;;4816820;29;20061;-79
2022/05/07 00:59:34;;;;;;;12.90;11.20;;;;;;;;;;4816638;29;20115;-80
2022/05/07 01:01:59;;;;;;;12.77;10.82;;;;;;;;;;4803776;29;20062;-79
2022/05/07 01:04:24;;;;;;;14.13;11.25;;;;;;;;;;4803867;29;20401;-79
2022/05/07 01:06:50;;;;;;;12.77;10.82;;;;;;;;;;4805123;29;20574;-80
2022/05/07 01:09:16;;;;;;;14.75;11.18;;;;;;;;;;4805944;29;20493;-84
2022/05/07 01:11:42;;;;;;;12.70;10.93;;;;;;;;;;4804485;29;20094;-79
2022/05/07 01:14:07;;;;;;;14.35;11.57;;;;;;;;;;4802001;29;20026;-79
2022/05/07 01:16:33;;;;;;;15.98;11.15;;;;;;;;;;4801363;29;20030;-81
2022/05/07 01:18:58;;;;;;;14.88;10.65;;;;;;;;;;4806748;29;20046;-84
2022/05/07 01:21:24;;;;;;;13.98;10.82;;;;;;;;;;4816567;29;20030;-79
2022/05/07 01:23:49;;;;;;;14.18;10.93;;;;;;;;;;4818300;29;20034;-84
2022/05/07 01:26:16;;;;;;;13.75;11.30;;;;;;;;;;4801923;29;20879;-83
2022/05/07 01:28:42;;;;;;;14.57;11.88;;;;;;;;;;4801165;29;20039;-83
2022/05/07 01:31:07;;;;;;;14.63;11.02;;;;;;;;;;4801706;29;20087;-84
2022/05/07 01:33:34;;;;;;;13.60;10.45;;;;;;;;;;4818187;29;20065;-83
2022/05/07 01:36:03;;;;;;;13.77;10.80;;;;;;;;;;4802598;29;20150;-84
2022/05/07 01:38:30;;;;;;;13.70;11.63;;;;;;;;;;4816750;29;20075;-79
2022/05/07 01:40:56;;;;;;;14.27;10.40;;;;;;;;;;4815643;29;20051;-84
2022/05/07 01:43:21;;;;;;;13.63;10.98;;;;;;;;;;4818625;29;20109;-83
2022/05/07 01:45:47;;;;;;;13.55;10.75;;;;;;;;;;4816694;29;20122;-84
2022/05/07 01:48:13;;;;;;;12.55;10.40;;;;;;;;;;4818869;29;20027;-83
2022/05/07 01:50:40;;;;;;;14.63;11.02;;;;;;;;;;4801926;29;20038;-83
2022/05/07 01:53:07;;;;;;;13.70;10.50;;;;;;;;;;4818283;29;20486;-78
2022/05/07 01:55:33;;;;;;;13.70;10.50;;;;;;;;;;4814331;29;20113;-83
2022/05/07 01:57:58;;;;;;;13.82;10.32;;;;;;;;;;4803017;29;20034;-80
2022/05/07 02:00:24;;;;;;;13.75;10.90;;;;;;;;;;4814761;29;21162;-84
2022/05/07 02:02:49;;;;;;;12.55;10.15;;;;;;;;;;4799808;29;20493;-85
2022/05/07 02:05:14;;;;;;;13.98;10.40;;;;;;;;;;4802927;29;20099;-82
2022/05/07 02:07:39;;;;;;;16.98;10.90;;;;;;;;;;4817196;29;20099;-79
2022/05/07 02:10:05;;;;;;;17.48;10.85;;;;;;;;;;4815891;29;20026;-84
2022/05/07 02:12:30;;;;;;;13.73;10.48;;;;;;;;;;4803694;29;20039;-83
2022/05/07 02:14:56;;;;;;;12.35;10.00;;;;;;;;;;4829263;29;20040;-83
2022/05/07 02:17:21;;;;;;;13.05;10.23;;;;;;;;;;4813984;29;20037;-83
2022/05/07 02:19:46;;;;;;;14.10;10.93;;;;;;;;;;4816665;29;20062;-83
2022/05/07 02:22:12;;;;;;;13.90;10.10;;;;;;;;;;4817528;29;20030;-79
2022/05/07 02:24:37;;;;;;;14.80;10.38;;;;;;;;;;4831288;29;20034;-79
2022/05/07 02:27:03;;;;;;;13.50;10.77;;;;;;;;;;4817573;29;20451;-83
2022/05/07 02:29:28;;;;;;;13.60;10.70;;;;;;;;;;4803459;29;20034;-83
2022/05/07 02:32:06;;;;;;;14.20;11.23;;;;;;;;;;4803512;29;20034;-83
2022/05/07 02:34:36;;;;;;;13.52;10.15;;;;;;;;;;4819461;29;20109;-84
2022/05/07 02:37:02;;;;;;;12.80;10.35;;;;;;;;;;4818527;29;20042;-83
2022/05/07 02:39:28;;;;;;;13.00;9.93;;;;;;;;;;4814977;29;20115;-79
2022/05/07 02:44:37;;;;;;;14.10;11.40;;;;;;;;;;4817100;29;20772;-79
2022/05/07 02:47:04;;;;;;;14.10;10.73;;;;;;;;;;4818136;29;20038;-82
2022/05/07 02:49:30;;;;;;;15.40;11.35;;;;;;;;;;4815345;29;20042;-83
2022/05/07 02:51:55;;;;;;;13.32;10.43;;;;;;;;;;4803744;29;20034;-78
2022/05/07 02:54:20;;;;;;;13.30;10.40;;;;;;;;;;4801392;29;20022;-83
2022/05/07 02:56:46;;;;;;;13.82;10.48;;;;;;;;;;4817352;29;20038;-79
2022/05/07 02:59:11;;;;;;;12.95;10.75;;;;;;;;;;4800735;29;20401;-84
2022/05/07 03:01:36;;;;;;;13.77;10.90;;;;;;;;;;4804003;29;20418;-79
2022/05/07 03:04:02;;;;;;;13.93;10.57;;;;;;;;;;4803402;29;20508;-80
2022/05/07 03:06:28;;;;;;;11.80;10.05;;;;;;;;;;4818755;29;20037;-79
2022/05/07 03:08:53;;;;;;;12.75;10.13;;;;;;;;;;4817495;29;20038;-80
2022/05/07 03:11:18;;;;;;;15.82;10.93;;;;;;;;;;4817913;29;20049;-83
2022/05/07 03:13:44;;;;;;;13.27;10.07;;;;;;;;;;4815986;29;20508;-84
2022/05/07 03:16:09;;;;;;;12.65;10.15;;;;;;;;;;4801069;29;20034;-83
2022/05/07 03:18:37;;;;;;;14.32;10.38;;;;;;;;;;4817333;29;20041;-84
2022/05/07 03:21:03;;;;;;;14.38;10.68;;;;;;;;;;4802382;29;20069;-83
2022/05/07 03:23:28;;;;;;;13.07;10.68;;;;;;;;;;4816061;29;20221;-84
2022/05/07 03:25:55;;;;;;;13.80;10.75;;;;;;;;;;4814036;29;20042;-83
2022/05/07 03:28:20;;;;;;;12.95;10.52;;;;;;;;;;4818105;29;20486;-84
2022/05/07 03:30:45;;;;;;;13.85;10.63;;;;;;;;;;4800306;29;20045;-84
2022/05/07 03:33:11;;;;;;;12.48;10.55;;;;;;;;;;4818391;29;20042;-83
2022/05/07 03:35:36;;;;;;;13.70;10.38;;;;;;;;;;4818177;29;20085;-83
2022/05/07 03:38:01;;;;;;;14.05;10.90;;;;;;;;;;4818452;29;20074;-79
2022/05/07 03:40:28;;;;;;;14.27;11.38;;;;;;;;;;4799156;29;20576;-84
2022/05/07 03:42:54;;;;;;;16.38;10.73;;;;;;;;;;4816605;29;20057;-79
2022/05/07 03:45:19;;;;;;;13.45;10.27;;;;;;;;;;4799962;29;20875;-79
2022/05/07 03:47:45;;;;;;;14.02;11.00;;;;;;;;;;4817301;29;20154;-79
2022/05/07 03:50:10;;;;;;;14.18;10.70;;;;;;;;;;4812935;29;20370;-79
2022/05/07 03:55:20;;;;;;;13.05;10.50;;;;;;;;;;4818272;29;20150;-79
2022/05/07 03:57:45;;;;;;;14.55;11.45;;;;;;;;;;4816435;29;20117;-81
2022/05/07 04:00:11;;;;;;;13.15;10.98;;;;;;;;;;4816831;29;20038;-83
2022/05/07 04:02:36;;;;;;;15.68;10.68;;;;;;;;;;4815070;29;20069;-79
2022/05/07 04:05:02;;;;;;;13.50;10.82;;;;;;;;;;4819481;29;20548;-83
2022/05/07 04:07:28;;;;;;;13.75;11.15;;;;;;;;;;4818433;29;20134;-79
2022/05/07 04:09:55;;;;;;;16.73;10.50;;;;;;;;;;4818311;29;20042;-85
2022/05/07 04:12:21;;;;;;;16.08;10.50;;;;;;;;;;4817230;29;20034;-83
2022/05/07 04:14:46;;;;;;;14.07;10.73;;;;;;;;;;4814471;29;20041;-82
2022/05/07 04:17:12;;;;;;;13.95;11.40;;;;;;;;;;4817632;29;20071;-80
2022/05/07 04:19:37;;;;;;;15.02;10.85;;;;;;;;;;4833463;29;20445;-83
2022/05/07 04:22:02;;;;;;;13.80;11.30;;;;;;;;;;4827752;29;20038;-79
2022/05/07 04:24:28;;;;;;;14.73;10.48;;;;;;;;;;4817641;29;20156;-83
2022/05/07 04:26:54;;;;;;;14.10;11.65;;;;;;;;;;4800855;29;20073;-83
2022/05/07 04:29:19;;;;;;;14.65;11.20;;;;;;;;;;4801926;29;20528;-83
2022/05/07 04:31:45;;;;;;;12.38;10.75;;;;;;;;;;4801757;29;20081;-82
2022/05/07 04:34:11;;;;;;;13.93;10.85;;;;;;;;;;4802330;29;20035;-81
2022/05/07 04:36:36;;;;;;;14.32;11.02;;;;;;;;;;4819836;29;20030;-78
2022/05/07 04:39:02;;;;;;;13.65;10.55;;;;;;;;;;4814902;29;20119;-79
2022/05/07 04:41:27;;;;;;;16.15;10.65;;;;;;;;;;4804355;29;20078;-80
2022/05/07 04:43:52;;;;;;;14.18;11.50;;;;;;;;;;4801547;29;20541;-83
2022/05/07 04:46:18;;;;;;;13.63;10.90;;;;;;;;;;4820547;29;20038;-79
2022/05/07 04:48:43;;;;;;;13.57;11.00;;;;;;;;;;4804611;29;20035;-78
2022/05/07 04:51:09;;;;;;;13.48;11.23;;;;;;;;;;4801264;29;20513;-79
2022/05/07 04:53:34;;;;;;;14.60;11.10;;;;;;;;;;4818710;29;20034;-83
2022/05/07 04:56:00;;;;;;;15.85;10.93;;;;;;;;;;4822596;29;20031;-83
2022/05/07 04:58:25;;;;;;;14.52;11.40;;;;;;;;;;4829569;29;20114;-83
2022/05/07 05:00:52;;;;;;;15.93;11.80;;;;;;;;;;4823561;29;20520;-79
2022/05/07 05:03:17;;;;;;;15.70;11.75;;;;;;;;;;4818459;29;20027;-79
2022/05/07 05:05:44;;;;;;;14.63;10.82;;;;;;;;;;4820089;29;20041;-79
2022/05/07 05:08:09;;;;;;;16.02;11.43;;;;;;;;;;4803426;29;20046;-84
2022/05/07 05:10:35;;;;;;;14.18;11.40;;;;;;;;;;4805619;29;20035;-79
2022/05/07 05:13:00;;;;;;;16.05;12.23;;;;;;;;;;4819644;29;20030;-79
2022/05/07 05:15:26;;;;;;;15.45;12.55;;;;;;;;;;4819479;29;20457;-83
2022/05/07 05:17:51;;;;;;;15.27;11.98;;;;;;;;;;4831211;29;20047;-79
2022/05/07 05:20:17;;;;;;;15.60;12.35;;;;;;;;;;4805446;29;20034;-84
2022/05/07 05:22:49;;;;;;;15.15;12.25;;;;;;;;;;4802382;29;20095;-79
2022/05/07 05:25:20;;;;;;;16.45;11.85;;;;;;;;;;4805010;29;20109;-80
2022/05/07 05:27:45;;;;;;;15.77;12.27;;;;;;;;;;4814823;29;20040;-79
2022/05/07 05:30:11;;;;;;;15.30;12.57;;;;;;;;;;4819012;29;20113;-83
2022/05/07 05:32:37;;;;;;;18.30;13.50;;;;;;;;;;4801972;29;20034;-78
2022/05/07 05:35:03;;;;;;;16.23;13.05;;;;;;;;;;4818783;29;20037;-83
2022/05/07 05:37:30;;;;;;;16.35;13.02;;;;;;;;;;4802696;29;20027;-79
2022/05/07 05:39:55;;;;;;;17.50;12.75;;;;;;;;;;4818664;29;20047;-79
2022/05/07 05:42:21;;;;;;;19.05;12.68;;;;;;;;;;4817306;29;20030;-84
2022/05/07 05:44:46;;;;;;;16.70;12.98;;;;;;;;;;4800944;29;20038;-83
2022/05/07 05:47:12;;;;;;;18.27;13.30;;;;;;;;;;4803493;29;20099;-83
2022/05/07 05:49:37;;;;;;;20.27;13.60;;;;;;;;;;4816164;29;20115;-80
2022/05/07 05:52:06;;;;;;;16.45;13.55;;;;;;;;;;4817106;29;20080;-79
2022/05/07 05:54:32;;;;;;;19.90;14.45;;;;;;;;;;4817803;29;20036;-79
2022/05/07 05:56:58;;;;;;;19.15;14.18;;;;;;;;;;4819383;29;20089;-83
2022/05/07 05:59:24;;;;;;;17.80;13.20;;;;;;;;;;4804262;29;20042;-79
2022/05/07 06:01:50;;;;;;;18.42;13.65;;;;;;;;;;4830955;29;20101;-79
2022/05/07 06:04:15;;;;;;;17.90;13.15;;;;;;;;;;4817591;29;20555;-83
2022/05/07 06:06:41;;;;;;;16.95;12.88;;;;;;;;;;4817436;29;20026;-84
2022/05/07 06:09:07;;;;;;;17.38;11.93;;;;;;;;;;4818879;29;20174;-79
2022/05/07 06:11:32;;;;;;;15.40;11.38;;;;;;;;;;4818470;29;20114;-80
2022/05/07 06:13:58;;;;;;;15.90;11.85;;;;;;;;;;4803243;29;20031;-79
2022/05/07 06:16:23;;;;;;;16.52;12.27;;;;;;;;;;4818453;29;20038;-83
2022/05/07 06:18:49;;;;;;;18.55;12.00;;;;;;;;;;4819567;29;20171;-79
2022/05/07 06:21:15;;;;;;;19.20;12.00;;;;;;;;;;4801838;29;20413;-84
2022/05/07 06:23:40;;;;;;;18.25;12.98;;;;;;;;;;4817472;29;20037;-83
2022/05/07 06:28:50;;;;;;;19.02;12.02;;;;;;;;;;4818526;29;20041;-83
2022/05/07 06:31:17;;;;;;;17.52;11.95;;;;;;;;;;4818217;29;20034;-83
2022/05/07 06:33:43;;;;;;;18.17;11.45;;;;;;;;;;4819079;29;20027;-79
2022/05/07 06:36:08;;;;;;;18.92;11.25;;;;;;;;;;4801562;29;20029;-79
2022/05/07 06:38:34;;;;;;;14.57;10.95;;;;;;;;;;4814602;29;20038;-79
2022/05/07 06:41:03;;;;;;;17.65;11.18;;;;;;;;;;4816907;29;20062;-83
2022/05/07 06:43:30;;;;;;;15.38;10.68;;;;;;;;;;4815860;29;20041;-82
2022/05/07 06:45:56;;;;;;;16.45;11.02;;;;;;;;;;4817011;29;20066;-80
2022/05/07 06:48:21;;;;;;;16.90;11.27;;;;;;;;;;4801723;29;20057;-84
2022/05/07 06:50:46;;;;;;;18.63;10.70;;;;;;;;;;4818097;29;20066;-79
2022/05/07 06:53:11;;;;;;;18.33;11.25;;;;;;;;;;4823027;29;20038;-83
2022/05/07 06:55:55;;;;;;;18.48;11.02;;;;;;;;;;4817939;29;20631;-79
2022/05/07 06:58:22;;;;;;;16.73;10.85;;;;;;;;;;4817716;29;20041;-81
2022/05/07 07:00:48;;;;;;;16.83;11.43;;;;;;;;;;4801284;29;20041;-83
2022/05/07 07:03:13;;;;;;;19.30;11.55;;;;;;;;;;4799986;29;20034;-83
2022/05/07 07:05:39;;;;;;;17.38;10.20;;;;;;;;;;4818240;29;20030;-79
2022/05/07 07:08:04;;;;;;;19.60;11.30;;;;;;;;;;4820026;29;20068;-79
2022/05/07 07:10:30;;;;;;;18.25;11.70;;;;;;;;;;4802625;29;20037;-79
2022/05/07 07:12:55;;;;;;;18.75;10.68;;;;;;;;;;4804210;29;20510;-84
2022/05/07 07:15:20;;;;;;;19.52;11.52;;;;;;;;;;4819944;29;20030;-80
2022/05/07 07:17:46;;;;;;;18.10;10.70;;;;;;;;;;4803601;29;20065;-80
2022/05/07 07:20:11;;;;;;;19.38;11.40;;;;;;;;;;4818257;29;20029;-80
2022/05/07 07:22:36;;;;;;;19.73;11.85;;;;;;;;;;4820218;29;20042;-81
2022/05/07 07:25:15;;;;;;;22.52;11.65;;;;;;;;;;4815982;29;22280;-79
2022/05/07 07:27:40;;;;;;;20.05;11.85;;;;;;;;;;4800547;29;20031;-84
2022/05/07 07:30:11;;;;;;;18.63;11.57;;;;;;;;;;4815636;29;20460;-79
2022/05/07 07:32:43;;;;;;;20.42;11.48;;;;;;;;;;4814932;29;20050;-83
2022/05/07 07:35:08;;;;;;;18.80;11.73;;;;;;;;;;4806087;29;20022;-85
2022/05/07 07:37:45;;;;;;;19.08;11.32;;;;;;;;;;4804757;29;20030;-84
2022/05/07 07:40:18;;;;;;;19.38;11.45;;;;;;;;;;4803739;29;20054;-85
2022/05/07 07:42:43;;;;;;;20.17;11.97;;;;;;;;;;4818475;29;20508;-83
2022/05/07 07:47:57;;;;;;;20.77;10.77;;;;;;;;;;4815689;29;20132;-79
2022/05/07 07:50:23;;;;;;;16.60;10.63;;;;;;;;;;4816218;29;20031;-79
2022/05/07 07:52:55;;;;;;;16.77;11.02;;;;;;;;;;4816900;29;20035;-80
2022/05/07 07:55:22;;;;;;;18.75;10.75;;;;;;;;;;4821191;29;20037;-80
2022/05/07 07:57:55;;;;;;;17.13;10.15;;;;;;;;;;4799070;29;20030;-78
2022/05/07 08:00:21;;;;;;;18.08;10.95;;;;;;;;;;4802584;29;20563;-83
2022/05/07 08:02:55;;;;;;;17.88;11.73;;;;;;;;;;4803218;29;20061;-85
2022/05/07 08:05:25;;;;;;;19.35;11.02;;;;;;;;;;4821662;29;20026;-84
2022/05/07 08:13:22;;;;;;;19.92;11.25;;;;;;;;;;4817908;29;20049;-85
2022/05/07 08:15:52;;;;;;;17.80;11.18;;;;;;;;;;4802738;29;20038;-79
2022/05/07 08:18:19;;;;;;;18.30;12.00;;;;;;;;;;4822537;29;20471;-79
2022/05/07 08:20:55;;;;;;;17.38;11.32;;;;;;;;;;4800221;29;20079;-79
2022/05/07 08:23:20;;;;;;;19.25;11.27;;;;;;;;;;4814176;29;20432;-83
2022/05/07 08:25:53;;;;;;;20.55;10.57;;;;;;;;;;4817020;29;20041;-82
2022/05/07 08:28:19;;;;;;;19.67;11.38;;;;;;;;;;4816196;29;20504;-79
2022/05/07 08:30:45;;;;;;;18.10;10.32;;;;;;;;;;4806786;29;20030;-83
2022/05/07 08:33:22;;;;;;;19.05;12.00;;;;;;;;;;4805047;29;20030;-80
2022/05/07 08:36:08;;;;;;;18.75;11.20;;;;;;;;;;4801376;29;20026;-80
2022/05/07 08:38:47;;;;;;;18.10;11.30;;;;;;;;;;4796423;29;20023;-80
2022/05/07 08:41:21;;;;;;;17.17;10.43;;;;;;;;;;4801928;29;20043;-80
2022/05/07 08:44:04;;;;;;;21.63;10.48;;;;;;;;;;4815858;29;20043;-79
2022/05/07 08:46:29;;;;;;;21.45;11.50;;;;;;;;;;4817685;29;20072;-79
2022/05/07 08:48:58;;;;;;;18.75;10.43;;;;;;;;;;4806012;29;20048;-84
2022/05/07 08:51:23;;;;;;;17.63;10.50;;;;;;;;;;4819072;29;20510;-80
2022/05/07 08:53:53;;;;;;;18.17;10.18;;;;;;;;;;4819478;29;20098;-83
2022/05/07 08:56:18;;;;;;;17.00;10.32;;;;;;;;;;4802618;29;20053;-81
2022/05/07 08:58:49;;;;;;;18.88;11.02;;;;;;;;;;4828096;29;20026;-83
2022/05/07 09:01:14;;;;;;;20.67;10.48;;;;;;;;;;4816913;29;20054;-82
2022/05/07 09:03:48;;;;;;;17.60;10.57;;;;;;;;;;4801886;29;20729;-80
2022/05/07 09:06:26;;;;;;;17.67;10.18;;;;;;;;;;4801924;29;20054;-81
2022/05/07 09:08:54;;;;;;;17.02;9.45;;;;;;;;;;4800298;29;20034;-82
2022/05/07 09:11:20;;;;;;;17.42;9.63;;;;;;;;;;4806867;29;20035;-83
2022/05/07 09:13:46;;;;;;;15.15;8.57;;;;;;;;;;4819566;29;20490;-80
2022/05/07 09:16:13;;;;;;;15.65;9.02;;;;;;;;;;4804577;29;20027;-81
2022/05/07 09:18:38;;;;;;;13.98;8.88;;;;;;;;;;4804043;29;20042;-80
2022/05/07 09:21:28;;;;;;;17.52;9.55;;;;;;;;;;4817070;29;20094;-81
2022/05/07 09:24:06;;;;;;;17.92;9.30;;;;;;;;;;4819331;29;20030;-78
2022/05/07 09:26:47;;;;;;;;;;;;;;;;;;;;;
2022/05/07 09:29:36;;;;;;;18.27;8.38;;;;;;;;;;4774078;29;20052;-82
2022/05/07 09:32:18;;;;;;;;;;;;;;;;;;4818251;29;20042;-80
2022/05/07 09:38:05;;;;;;;15.38;8.15;;;;;;;;;;4818365;29;20048;-80
2022/05/07 09:40:36;;;;;;;13.90;7.75;;;;;;;;;;4832782;29;20509;-82
2022/05/07 09:43:02;;;;;;;17.23;8.10;;;;;;;;;;4817650;29;20034;-83
2022/05/07 09:45:27;;;;;;;15.85;8.43;;;;;;;;;;4819447;29;20069;-82
2022/05/07 09:47:59;;;;;;;14.15;8.85;;;;;;;;;;4803310;29;20035;-83
2022/05/07 09:58:41;;;;;;;14.82;8.60;;;;;;;;;;4820046;29;20047;-83
2022/05/07 10:01:21;;;;;;;16.08;8.50;;;;;;;;;;4813437;29;20045;-82
2022/05/07 10:03:47;;;;;;;15.98;8.68;;;;;;;;;;4822423;29;20031;-79
2022/05/07 10:06:45;;;;;;;17.08;8.52;;;;;;;;;;4805025;29;20095;-82
2022/05/07 10:09:48;;;;;;;12.38;7.70;;;;;;;;;;4797010;29;20500;-83
2022/05/07 10:12:19;;;;;;;13.10;8.43;;;;;;;;;;4808217;29;20034;-81
2022/05/07 10:14:45;;;;;;;15.15;8.57;;;;;;;;;;4820792;29;20030;-81
2022/05/07 10:17:12;;;;;;;16.85;9.38;;;;;;;;;;4819921;29;20061;-82
2022/05/07 10:19:43;;;;;;;15.32;9.07;;;;;;;;;;4805832;29;20034;-79
2022/05/07 10:22:25;;;;;;;15.15;8.93;;;;;;;;;;4809385;29;20035;-83
2022/05/07 10:25:08;;;;;;;15.60;9.57;;;;;;;;;;4820384;29;20042;-82
2022/05/07 10:27:36;;;;;;;16.80;9.23;;;;;;;;;;4832920;29;20041;-83
2022/05/07 10:30:05;;;;;;;14.95;8.88;;;;;;;;;;4827751;29;20050;-81
2022/05/07 10:33:01;;;;;;;16.55;9.70;;;;;;;;;;4824050;29;20026;-83
2022/05/07 10:35:51;;;;;;;14.60;8.80;;;;;;;;;;4822133;29;20061;-82
2022/05/07 10:38:28;;;;;;;14.30;8.70;;;;;;;;;;4822598;29;20026;-80
2022/05/07 10:40:56;;;;;;;14.20;8.77;;;;;;;;;;4807875;29;20572;-83
2022/05/07 10:43:29;;;;;;;13.13;7.30;;;;;;;;;;4812365;29;20038;-81
2022/05/07 10:46:02;;;;;;;12.98;7.78;;;;;;;;;;4824116;29;20121;-81
2022/05/07 10:48:28;;;;;;;12.95;7.55;;;;;;;;;;4823767;29;20030;-80
2022/05/07 10:51:00;;;;;;;12.95;7.93;;;;;;;;;;4808221;29;20030;-82
2022/05/07 10:53:37;;;;;;;14.53;8.87;;;;;;;;;;4820980;29;20117;-81
2022/05/07 10:56:02;;;;;;;13.35;8.77;;;;;;;;;;4816171;29;20269;-81
2022/05/07 10:58:33;;;;;;;15.07;10.20;;;;;;;;;;4821615;29;20477;-82
2022/05/07 11:00:59;;;;;;;16.65;10.23;;;;;;;;;;4818741;29;20061;-83
2022/05/07 11:03:34;;;;;;;13.32;8.43;;;;;;;;;;4806344;29;20030;-82
2022/05/07 11:06:01;;;;;;;15.05;9.10;;;;;;;;;;4823465;29;20038;-83
2022/05/07 11:08:30;;;;;;;13.52;8.07;;;;;;;;;;4806844;29;20042;-81
2022/05/07 11:11:10;;;;;;;17.60;9.52;;;;;;;;;;4807354;29;20132;-82
2022/05/07 11:13:58;;;;;;;12.88;9.10;;;;;;;;;;4821051;29;20070;-83
2022/05/07 11:16:24;;;;;;;12.30;8.77;;;;;;;;;;4815451;29;20038;-81
2022/05/07 11:18:53;;;;;;;13.32;9.15;;;;;;;;;;4823444;29;20042;-81
2022/05/07 11:21:22;;;;;;;12.65;8.35;;;;;;;;;;4821480;29;20053;-80
2022/05/07 11:23:59;;;;;;;13.75;8.50;;;;;;;;;;4806857;29;20034;-81
2022/05/07 11:26:28;;;;;;;12.15;8.10;;;;;;;;;;4820690;29;20115;-81
2022/05/07 11:28:54;;;;;;;12.15;8.00;;;;;;;;;;4822883;29;20037;-82
2022/05/07 11:31:27;;;;;;;12.88;8.13;;;;;;;;;;4807049;29;20067;-81
2022/05/07 11:34:07;;;;;;;11.13;7.03;;;;;;;;;;4819194;29;20031;-82
2022/05/07 11:36:36;;;;;;;12.60;7.10;;;;;;;;;;4815219;29;20057;-82
2022/05/07 11:39:09;;;;;;;11.15;6.57;;;;;;;;;;4822489;29;20042;-82
2022/05/07 11:41:38;;;;;;;11.27;6.10;;;;;;;;;;4806542;29;20678;-80
2022/05/07 11:46:55;;;;;;;9.45;5.82;;;;;;;;;;4823089;29;20174;-81
2022/05/07 11:49:33;;;;;;;10.57;5.90;;;;;;;;;;4823172;29;20545;-81
2022/05/07 11:52:11;;;;;;;7.72;4.97;;;;;;;;;;4807303;29;20049;-81
2022/05/07 11:54:48;;;;;;;9.50;5.38;;;;;;;;;;4815847;29;20045;-81
2022/05/07 11:57:13;;;;;;;10.25;5.45;;;;;;;;;;4806564;29;20451;-81
2022/05/07 11:59:43;;;;;;;8.73;5.40;;;;;;;;;;4823095;29;20038;-81
2022/05/07 12:02:08;;;;;;;7.88;5.25;;;;;;;;;;4821803;29;20042;-81
2022/05/07 12:04:34;;;;;;;8.95;5.70;;;;;;;;;;4821284;29;20037;-82
2022/05/07 12:06:59;;;;;;;9.20;5.32;;;;;;;;;;4822756;29;20030;-82
2022/05/07 12:09:27;;;;;;;8.75;5.50;;;;;;;;;;4817884;29;20034;-82
2022/05/07 12:11:52;;;;;;;7.95;5.28;;;;;;;;;;4809777;29;20030;-82
2022/05/07 12:14:20;;;;;;;10.27;5.90;;;;;;;;;;4820753;29;20034;-83
2022/05/07 12:19:32;;;;;;;8.50;6.22;;;;;;;;;;4822254;29;20646;-82
2022/05/07 12:30:12;;;;;;;7.38;4.65;;;;;;;;;;4822536;29;20389;-81
2022/05/07 12:32:38;;;;;;;8.32;4.55;;;;;;;;;;4820255;29;20481;-82
2022/05/07 12:35:04;;;;;;;7.38;3.85;;;;;;;;;;4818238;29;20041;-81
2022/05/07 12:37:30;;;;;;;8.73;5.38;;;;;;;;;;4807739;29;20040;-82
2022/05/07 12:39:57;;;;;;;7.72;4.47;;;;;;;;;;4820691;29;20561;-80
2022/05/07 12:42:23;;;;;;;6.85;4.30;;;;;;;;;;4820275;29;20489;-80
2022/05/07 12:44:49;;;;;;;9.13;4.47;;;;;;;;;;4821015;29;20030;-79
2022/05/07 12:47:17;;;;;;;6.00;3.40;;;;;;;;;;4802685;29;20114;-83
2022/05/07 12:49:42;;;;;;;9.68;5.00;;;;;;;;;;4817308;29;20019;-81
2022/05/07 12:52:09;;;;;;;8.27;4.90;;;;;;;;;;4807361;29;20386;-81
2022/05/07 12:54:38;;;;;;;8.07;5.10;;;;;;;;;;4819011;29;20065;-80
2022/05/07 12:57:04;;;;;;;9.63;5.13;;;;;;;;;;4819599;29;20106;-80
2022/05/07 12:59:30;;;;;;;10.63;5.65;;;;;;;;;;4801564;29;20454;-83
2022/05/07 13:01:56;;;;;;;9.60;5.68;;;;;;;;;;4817019;29;20091;-82
2022/05/07 13:04:24;;;;;;;9.05;5.55;;;;;;;;;;4807435;29;20482;-83
2022/05/07 13:07:10;;;;;;;10.32;5.03;;;;;;;;;;4821280;29;20070;-83
2022/05/07 13:09:41;;;;;;;10.50;5.18;;;;;;;;;;4799355;29;20042;-82
2022/05/07 13:12:10;;;;;;;10.95;5.72;;;;;;;;;;4801861;29;20038;-82
2022/05/07 13:14:36;;;;;;;10.10;6.40;;;;;;;;;;4820428;29;20030;-81
2022/05/07 13:17:02;;;;;;;8.55;6.22;;;;;;;;;;4822745;29;20034;-85
2022/05/07 13:19:27;;;;;;;9.57;6.05;;;;;;;;;;4821884;29;20037;-83
2022/05/07 13:21:54;;;;;;;11.88;6.57;;;;;;;;;;4822961;29;20113;-81
2022/05/07 13:24:19;;;;;;;12.15;6.70;;;;;;;;;;4819617;29;20486;-83
2022/05/07 13:26:45;;;;;;;12.73;7.22;;;;;;;;;;4821125;29;20180;-83
2022/05/07 13:29:11;;;;;;;13.23;8.02;;;;;;;;;;4806952;29;20038;-82
2022/05/07 13:31:40;;;;;;;9.82;7.13;;;;;;;;;;4807561;29;20034;-83
2022/05/07 13:34:05;;;;;;;13.00;8.10;;;;;;;;;;4824470;29;20046;-87
2022/05/07 13:36:31;;;;;;;11.77;8.50;;;;;;;;;;4823843;29;20049;-81
2022/05/07 13:38:58;;;;;;;13.70;8.75;;;;;;;;;;4819659;29;20061;-83
2022/05/07 13:41:26;;;;;;;14.73;9.60;;;;;;;;;;4823218;29;20047;-85
2022/05/07 13:43:51;;;;;;;15.15;9.18;;;;;;;;;;4822871;29;20568;-86
2022/05/07 13:46:17;;;;;;;13.43;9.10;;;;;;;;;;4819574;29;20121;-83
2022/05/07 13:48:44;;;;;;;12.88;8.93;;;;;;;;;;4803796;29;20026;-85
2022/05/07 13:51:09;;;;;;;15.35;9.05;;;;;;;;;;4807509;29;20489;-83
2022/05/07 13:53:34;;;;;;;13.10;8.52;;;;;;;;;;4821497;29;20034;-85
2022/05/07 13:56:00;;;;;;;14.90;9.20;;;;;;;;;;4809051;29;20123;-86
2022/05/07 13:58:44;;;;;;;14.65;8.80;;;;;;;;;;4820709;29;20367;-83
2022/05/07 14:01:10;;;;;;;14.20;8.20;;;;;;;;;;4808466;29;20105;-84
2022/05/07 14:03:36;;;;;;;14.27;9.40;;;;;;;;;;4803630;29;20038;-84
2022/05/07 14:06:48;;;;;;;14.95;9.18;;;;;;;;;;4820854;29;20045;-86
2022/05/07 14:09:20;;;;;;;13.73;8.80;;;;;;;;;;4805108;29;20038;-84
2022/05/07 14:11:50;;;;;;;12.05;8.57;;;;;;;;;;4804697;29;20042;-85
2022/05/07 14:14:21;;;;;;;13.65;9.13;;;;;;;;;;4823054;29;20389;-86
2022/05/07 14:16:50;;;;;;;14.20;9.07;;;;;;;;;;4818352;29;20414;-82
2022/05/07 14:19:22;;;;;;;14.68;9.60;;;;;;;;;;4807954;29;20030;-82
2022/05/07 14:21:50;;;;;;;13.23;9.02;;;;;;;;;;4806856;29;20497;-83
2022/05/07 14:24:37;;;;;;;;;;;;;;;;;;;;;
2022/05/07 14:27:24;;;;;;;13.63;8.48;;;;;;;;;;4785692;29;20049;-80
2022/05/07 14:29:51;;;;;;;12.75;7.60;;;;;;;;;;4791857;29;20125;-81
2022/05/07 14:32:24;;;;;;;10.40;7.40;;;;;;;;;;4778079;29;20417;-85
2022/05/07 14:34:55;;;;;;;11.45;7.78;;;;;;;;;;4775718;29;20478;-84
2022/05/07 14:39:54;;;;;;;9.68;6.30;;;;;;;;;;4799970;29;20058;-82
2022/05/07 14:42:54;;;;;;;9.90;6.60;;;;;;;;;;4789000;29;20398;-81
2022/05/07 14:45:26;;;;;;;9.52;6.13;;;;;;;;;;4753026;30;20159;-85
2022/05/07 14:47:57;;;;;;;10.63;6.50;;;;;;;;;;4768663;30;20503;-85
2022/05/07 14:50:27;;;;;;;10.27;6.82;;;;;;;;;;4773007;29;20306;-82
2022/05/07 14:55:57;;;;;;;12.60;7.75;;;;;;;;;;4779807;29;20124;-82
2022/05/07 14:58:58;;;;;;;13.82;8.23;;;;;;;;;;4787513;29;20027;-83
2022/05/07 15:01:29;;;;;;;15.32;8.15;;;;;;;;;;4735030;30;20079;-86
2022/05/07 15:03:57;;;;;;;11.50;7.30;;;;;;;;;;4750263;30;20040;-87
2022/05/07 15:06:28;;;;;;;15.27;8.27;;;;;;;;;;4745145;30;20075;-87
2022/05/07 15:12:02;;;;;;;11.80;7.07;;;;;;;;;;4745321;30;20538;-83
2022/05/07 15:14:30;;;;;;;10.45;7.65;;;;;;;;;;4747563;29;20038;-82
2022/05/07 15:17:02;;;;;;;15.07;8.35;;;;;;;;;;4782549;29;20096;-82
2022/05/07 15:19:33;;;;;;;10.82;7.47;;;;;;;;;;4781460;29;20035;-82
2022/05/07 15:22:01;;;;;;;10.77;7.57;;;;;;;;;;4797786;29;20091;-82
2022/05/07 15:24:33;;;;;;;10.65;7.15;;;;;;;;;;4798039;29;20038;-84
2022/05/07 15:27:01;;;;;;;11.75;7.50;;;;;;;;;;4783132;29;20031;-85